This is the latest recevied weather packets stored in our database for station/object SQ7IQO. If no packets are shown the sender has not sent any weather packets the latest 10 day(s).
| Time | Temp. | Humidity | Pressure | Rain* | Wind** | Luminosity | Snow |
|---|---|---|---|---|---|---|---|
| 1788010782 | 22.22° C | 68% | 1015.3 hPa | 0 mm | 1.34 m/s, ° | - | - |
| 1788010721 | 22.78° C | 67% | 1015.2 hPa | 0 mm | 1.79 m/s, ° | - | - |
| 1788010661 | 23.89° C | 65% | 1015.2 hPa | 0 mm | 2.24 m/s, ° | - | - |
| 1788010602 | 23.89° C | 66% | 1015.2 hPa | 0 mm | 0.89 m/s, ° | - | - |
| 1788010541 | 23.89° C | 65% | 1015.2 hPa | 0 mm | 1.34 m/s, ° | - | - |
| 1788010482 | 23.33° C | 67% | 1015.2 hPa | 0 mm | 0.89 m/s, ° | - | - |
| 1788010422 | 22.78° C | 67% | 1015.2 hPa | 0 mm | 0.89 m/s, ° | - | - |
| 1788010362 | 22.78° C | 67% | 1015.2 hPa | 0 mm | 1.34 m/s, ° | - | - |
| 1788010302 | 22.78° C | 67% | 1015.2 hPa | 0 mm | 0.89 m/s, ° | - | - |
| 1788010242 | 22.78° C | 68% | 1015.2 hPa | 0 mm | 0.89 m/s, ° | - | - |
| 1788010182 | 22.78° C | 68% | 1015.2 hPa | 0 mm | 0.89 m/s, ° | - | - |
| 1788010122 | 22.22° C | 68% | 1015.2 hPa | 0 mm | 0.45 m/s, ° | - | - |
| 1788010062 | 22.78° C | 67% | 1015.2 hPa | 0 mm | 0.89 m/s, ° | - | - |
| 1788010002 | 23.89° C | 64% | 1015.2 hPa | 0 mm | 1.79 m/s, ° | - | - |
| 1788009942 | 24.44° C | 64% | 1015.2 hPa | 0 mm | 0.89 m/s, ° | - | - |
| 1788009882 | 23.89° C | 65% | 1015.2 hPa | 0 mm | 0.45 m/s, ° | - | - |
| 1788009821 | 23.33° C | 65% | 1015.1 hPa | 0 mm | 0.89 m/s, ° | - | - |
| 1788009761 | 22.78° C | 67% | 1015.1 hPa | 0 mm | 0.89 m/s, ° | - | - |
| 1788009701 | 22.78° C | 67% | 1474.9 hPa | 0 mm | 0.89 m/s, ° | - | - |
| 1788009641 | 22.78° C | 68% | 1015.1 hPa | 0 mm | 1.34 m/s, ° | - | - |
| 1788009581 | 22.78° C | 68% | 1015.1 hPa | 0 mm | 1.34 m/s, ° | - | - |
| 1788009522 | 22.22° C | 70% | 1015.1 hPa | 0 mm | 0.45 m/s, ° | - | - |
| 1788009462 | 21.67° C | 70% | 1015.2 hPa | 0 mm | 1.34 m/s, ° | - | - |
| 1788009402 | 21.67° C | 69% | 1015.1 hPa | 0 mm | 1.79 m/s, ° | - | - |
| 1788009342 | 21.67° C | 70% | 1015.1 hPa | 0 mm | 1.34 m/s, ° | - | - |
* Rain latest hour (hover to see other rain measurements)
** Current wind speed in m/s (hover to see current wind gust speed)